createdAt,value
2023-03-22T00:01:15.153Z,32.23
2023-03-22T00:05:15.094Z,32.25
2023-03-22T00:09:15.061Z,32.24
2023-03-22T00:13:15.040Z,32.26
2023-03-22T00:17:14.959Z,32.26
2023-03-22T00:21:14.917Z,32.26
2023-03-22T00:25:14.894Z,32.29
2023-03-22T00:29:14.886Z,32.29
2023-03-22T00:33:14.839Z,32.30
2023-03-22T00:37:14.801Z,32.27
2023-03-22T00:41:14.768Z,32.31
2023-03-22T00:45:14.716Z,32.31
2023-03-22T00:49:14.685Z,32.31
2023-03-22T00:53:14.653Z,32.32
2023-03-22T00:57:14.579Z,32.34
2023-03-22T01:01:15.005Z,32.34
2023-03-22T01:05:14.495Z,32.33
2023-03-22T01:09:14.499Z,32.34
2023-03-22T01:13:16.388Z,32.33
2023-03-22T01:17:14.442Z,32.35
2023-03-22T01:21:14.407Z,32.35
2023-03-22T01:25:14.351Z,32.37
2023-03-22T01:29:14.323Z,32.35
2023-03-22T01:33:14.292Z,32.37
2023-03-22T01:37:14.222Z,32.37
2023-03-22T01:41:14.197Z,32.38
2023-03-22T01:45:14.141Z,32.39
2023-03-22T01:49:14.171Z,32.37
2023-03-22T01:53:14.106Z,32.41
2023-03-22T01:57:14.066Z,32.40
2023-03-22T02:01:14.034Z,32.41
2023-03-22T02:05:13.992Z,32.41
2023-03-22T02:09:13.938Z,32.40
2023-03-22T02:13:13.903Z,32.42
2023-03-22T02:17:13.888Z,32.42
2023-03-22T02:21:13.838Z,32.43
2023-03-22T02:25:13.774Z,32.41
2023-03-22T02:29:13.748Z,32.43
2023-03-22T02:33:13.699Z,32.41
2023-03-22T02:37:13.658Z,32.44
2023-03-22T02:41:13.633Z,32.44
2023-03-22T02:45:13.568Z,32.43
2023-03-22T02:49:13.570Z,32.46
2023-03-22T02:53:13.511Z,32.47
2023-03-22T02:57:13.480Z,32.45
2023-03-22T03:01:13.542Z,32.45
2023-03-22T03:05:13.433Z,32.45
2023-03-22T03:09:13.467Z,32.44
2023-03-22T03:13:13.495Z,32.46
2023-03-22T03:17:13.593Z,32.47
2023-03-22T03:21:13.644Z,32.46
2023-03-22T03:25:13.709Z,32.48
2023-03-22T03:29:13.730Z,32.49
2023-03-22T03:33:13.842Z,32.47
2023-03-22T03:37:13.912Z,32.45
2023-03-22T03:41:13.919Z,32.46
2023-03-22T03:45:14.014Z,32.46
2023-03-22T03:49:14.219Z,32.49
2023-03-22T03:53:14.178Z,32.49
2023-03-22T03:57:14.314Z,32.50
2023-03-22T04:01:14.344Z,32.49
2023-03-22T04:05:14.437Z,32.52
2023-03-22T04:09:14.453Z,32.50
2023-03-22T04:13:14.594Z,32.52
2023-03-22T04:17:14.644Z,32.50
2023-03-22T04:21:14.697Z,32.52
2023-03-22T04:25:14.890Z,32.54
2023-03-22T04:29:14.903Z,32.52
2023-03-22T04:33:14.943Z,32.52
2023-03-22T04:37:15.078Z,32.53
2023-03-22T04:41:15.176Z,32.52
2023-03-22T04:45:15.273Z,32.52
2023-03-22T04:49:15.371Z,32.52
2023-03-22T04:53:15.449Z,32.55
2023-03-22T04:57:15.601Z,32.53
2023-03-22T05:01:15.722Z,32.52
2023-03-22T05:05:15.746Z,32.17
2023-03-22T05:09:15.843Z,31.59
2023-03-22T05:13:15.916Z,31.38
2023-03-22T05:17:15.969Z,31.15
2023-03-22T05:21:16.081Z,31.00
2023-03-22T05:25:16.098Z,30.80
2023-03-22T05:29:16.179Z,30.67
2023-03-22T05:33:16.242Z,30.97
2023-03-22T05:37:16.337Z,31.23
2023-03-22T05:41:16.476Z,31.30
2023-03-22T05:45:16.558Z,31.44
2023-03-22T05:49:16.593Z,31.58
2023-03-22T05:53:16.661Z,31.63
2023-03-22T05:57:16.771Z,31.62
2023-03-22T06:01:16.886Z,31.56
2023-03-22T06:05:16.900Z,31.55
2023-03-22T06:09:18.084Z,31.63
2023-03-22T06:13:17.026Z,31.54
2023-03-22T06:17:17.031Z,31.39
2023-03-22T06:21:17.048Z,31.03
2023-03-22T06:25:17.042Z,30.72
2023-03-22T06:29:17.009Z,30.38
2023-03-22T06:33:17.052Z,30.62
2023-03-22T06:37:17.157Z,31.23
2023-03-22T06:41:17.232Z,31.60
2023-03-22T06:45:17.262Z,31.22
2023-03-22T06:49:17.463Z,31.17
2023-03-22T06:53:17.257Z,31.03
2023-03-22T06:57:17.291Z,30.96
2023-03-22T07:01:17.535Z,30.83
2023-03-22T07:05:17.411Z,30.79
2023-03-22T07:09:17.385Z,30.80
2023-03-22T07:13:17.373Z,30.68
2023-03-22T07:17:20.089Z,30.70
2023-03-22T07:21:17.321Z,30.82
2023-03-22T07:25:17.228Z,30.94
2023-03-22T07:29:17.204Z,30.96
2023-03-22T07:33:17.189Z,31.17
2023-03-22T07:37:17.125Z,31.44
2023-03-22T07:41:17.159Z,31.16
2023-03-22T07:45:17.168Z,31.34
2023-03-22T07:49:17.058Z,31.70
2023-03-22T07:53:17.057Z,31.68
2023-03-22T07:57:17.012Z,31.55
2023-03-22T08:01:17.135Z,31.44
2023-03-22T08:05:17.256Z,31.94
2023-03-22T08:09:17.307Z,31.23
2023-03-22T08:13:17.531Z,31.19
2023-03-22T08:17:17.668Z,31.08
2023-03-22T08:21:17.679Z,31.10
2023-03-22T08:25:17.818Z,31.38
2023-03-22T08:29:22.427Z,31.27
2023-03-22T08:33:18.154Z,31.23
2023-03-22T08:37:17.876Z,31.63
2023-03-22T08:41:17.802Z,31.47
2023-03-22T08:45:17.926Z,31.22
2023-03-22T08:49:17.740Z,30.87
2023-03-22T08:53:17.775Z,30.73
2023-03-22T08:57:17.841Z,30.59
2023-03-22T09:01:17.951Z,30.47
2023-03-22T09:05:18.270Z,30.57
2023-03-22T09:09:18.091Z,30.52
2023-03-22T09:13:18.732Z,33.09
2023-03-22T09:17:21.413Z,30.99
2023-03-22T09:21:19.028Z,30.58
2023-03-22T09:25:18.204Z,30.82
2023-03-22T09:29:18.274Z,31.45
2023-03-22T09:33:18.138Z,31.11
2023-03-22T09:37:18.115Z,30.77
2023-03-22T09:41:18.088Z,30.52
2023-03-22T09:45:18.347Z,29.67
2023-03-22T09:49:18.869Z,30.10
2023-03-22T09:53:18.234Z,30.22
2023-03-22T09:57:18.295Z,30.37
2023-03-22T10:01:20.864Z,30.76
2023-03-22T10:05:18.382Z,30.56
2023-03-22T10:09:18.285Z,30.14
2023-03-22T10:13:18.262Z,30.02
2023-03-22T10:17:18.264Z,29.13
2023-03-22T10:21:18.163Z,28.96
2023-03-22T10:25:18.267Z,28.75
2023-03-22T10:29:18.165Z,28.63
2023-03-22T10:33:18.093Z,28.76
2023-03-22T10:37:18.064Z,29.27
2023-03-22T10:41:18.013Z,28.73
2023-03-22T10:45:17.992Z,28.91
2023-03-22T10:49:17.948Z,28.68
2023-03-22T10:53:17.899Z,28.59
2023-03-22T10:57:17.886Z,28.72
2023-03-22T11:01:18.023Z,29.30
2023-03-22T11:05:17.787Z,29.34
2023-03-22T11:09:17.831Z,29.68
2023-03-22T11:13:18.231Z,29.55
2023-03-22T11:17:18.572Z,29.62
2023-03-22T11:21:17.721Z,29.47
2023-03-22T11:25:17.684Z,29.47
2023-03-22T11:29:18.587Z,29.45
2023-03-22T11:33:17.619Z,29.27
2023-03-22T11:37:18.310Z,29.19
2023-03-22T11:41:17.880Z,28.17
2023-03-22T11:45:17.461Z,27.83
2023-03-22T11:49:17.362Z,28.00
2023-03-22T11:53:17.360Z,28.12
2023-03-22T11:57:17.487Z,28.25
2023-03-22T12:01:17.305Z,28.21
2023-03-22T12:05:17.362Z,28.17
2023-03-22T12:09:17.194Z,27.39
2023-03-22T12:13:17.136Z,28.06
2023-03-22T12:17:17.187Z,27.96
2023-03-22T12:21:17.147Z,28.58
2023-03-22T12:25:17.512Z,28.66
2023-03-22T12:29:17.058Z,27.92
2023-03-22T12:33:17.277Z,27.08
2023-03-22T12:37:17.285Z,25.86
2023-03-22T12:41:17.286Z,26.56
2023-03-22T12:45:17.234Z,26.18
2023-03-22T12:49:17.183Z,26.03
2023-03-22T12:53:17.159Z,24.46
2023-03-22T12:57:17.115Z,25.23
2023-03-22T13:01:17.156Z,25.90
2023-03-22T13:05:16.985Z,25.23
2023-03-22T13:09:17.006Z,25.81
2023-03-22T13:13:17.009Z,26.90
2023-03-22T13:17:17.075Z,26.73
2023-03-22T13:21:17.034Z,26.55
2023-03-22T13:25:17.188Z,26.59
2023-03-22T13:29:17.003Z,26.40
2023-03-22T13:33:16.985Z,26.04
2023-03-22T13:37:16.864Z,25.87
2023-03-22T13:41:16.867Z,25.67
2023-03-22T13:45:16.880Z,25.37
2023-03-22T13:49:16.783Z,25.02
2023-03-22T13:53:16.731Z,24.73
2023-03-22T13:57:16.716Z,24.84
2023-03-22T14:01:16.772Z,25.83
2023-03-22T14:05:16.743Z,27.56
2023-03-22T14:09:16.638Z,27.90
2023-03-22T14:13:16.602Z,27.58
2023-03-22T14:17:16.564Z,27.10
2023-03-22T14:21:16.520Z,27.10
2023-03-22T14:46:11.197Z,27.36
2023-03-22T14:50:10.879Z,27.39
2023-03-22T14:54:10.877Z,27.35
2023-03-22T14:58:11.144Z,26.32
2023-03-22T15:02:10.865Z,25.79
2023-03-22T15:06:10.928Z,25.90
2023-03-22T15:10:10.953Z,25.64
2023-03-22T15:14:11.091Z,25.34
2023-03-22T15:18:11.679Z,25.41
2023-03-22T15:22:11.238Z,25.37
2023-03-22T15:26:11.372Z,25.42
2023-03-22T15:30:11.401Z,25.26
2023-03-22T15:34:11.290Z,25.53
2023-03-22T15:38:11.355Z,25.72
2023-03-22T15:42:11.214Z,26.15
2023-03-22T15:46:11.309Z,26.98
2023-03-22T15:50:11.190Z,27.44
2023-03-22T15:54:11.238Z,27.72
2023-03-22T15:58:11.241Z,27.33
2023-03-22T16:02:11.212Z,27.34
2023-03-22T16:06:11.204Z,27.38
2023-03-22T16:10:11.220Z,27.77
2023-03-22T16:14:11.236Z,28.08
2023-03-22T16:18:11.210Z,28.21
2023-03-22T16:22:11.708Z,28.35
2023-03-22T16:26:11.166Z,28.16
2023-03-22T16:30:11.171Z,27.58
2023-03-22T16:34:11.182Z,27.42
2023-03-22T16:38:11.550Z,27.44
2023-03-22T16:42:11.229Z,27.63
2023-03-22T16:46:11.248Z,27.89
2023-03-22T16:50:11.170Z,27.81
2023-03-22T16:54:11.159Z,27.86
2023-03-22T16:58:11.182Z,27.82
2023-03-22T17:02:11.165Z,27.77
2023-03-22T17:06:11.143Z,27.84
2023-03-22T17:10:11.152Z,27.86
2023-03-22T17:14:11.172Z,27.72
2023-03-22T17:18:11.214Z,27.74
2023-03-22T17:22:11.256Z,27.73
2023-03-22T17:26:11.327Z,27.50
2023-03-22T17:30:11.368Z,27.48
2023-03-22T17:34:11.506Z,27.50
2023-03-22T17:38:11.714Z,27.50
2023-03-22T17:42:11.599Z,27.71
2023-03-22T17:46:57.324Z,28.03
2023-03-22T17:50:12.662Z,28.45
2023-03-22T17:54:51.816Z,28.74
2023-03-22T17:58:31.172Z,29.06
2023-03-22T18:02:16.271Z,29.39
2023-03-22T18:06:12.508Z,29.60
2023-03-22T18:10:11.439Z,29.85
2023-03-22T18:14:24.967Z,30.70
2023-03-22T18:18:12.449Z,30.92
2023-03-22T18:22:11.311Z,31.63
2023-03-22T18:26:27.177Z,31.64
2023-03-22T18:30:12.316Z,31.90
2023-03-22T18:34:11.306Z,32.07
2023-03-22T18:38:11.304Z,30.86
2023-03-22T18:42:19.504Z,31.06
2023-03-22T18:46:19.008Z,31.27
2023-03-22T18:50:12.152Z,31.95
2023-03-22T18:54:11.104Z,31.79
2023-03-22T18:58:11.066Z,31.82
2023-03-22T19:02:15.960Z,32.52
2023-03-22T19:06:11.949Z,44.99
2023-03-22T19:10:10.934Z,41.14
2023-03-22T19:14:58.247Z,37.11
2023-03-22T19:18:11.890Z,35.17
2023-03-22T19:22:10.830Z,36.41
2023-03-22T19:26:10.806Z,42.04
2023-03-22T19:30:10.893Z,42.98
2023-03-22T19:34:11.071Z,39.64
2023-03-22T19:38:11.246Z,40.82
2023-03-22T19:42:12.136Z,38.05
2023-03-22T19:46:11.525Z,37.91
2023-03-22T19:50:11.740Z,37.73
2023-03-22T19:54:27.905Z,37.35
2023-03-22T19:58:12.819Z,36.63
2023-03-22T20:02:11.778Z,36.69
2023-03-22T20:06:11.796Z,36.58
2023-03-22T20:10:11.952Z,36.21
2023-03-22T20:14:12.167Z,36.59
2023-03-22T20:18:12.399Z,36.15
2023-03-22T20:22:12.563Z,36.37
2023-03-22T20:26:12.788Z,36.56
2023-03-22T20:30:12.988Z,36.43
2023-03-22T20:34:13.014Z,36.18
2023-03-22T20:38:12.944Z,35.94
2023-03-22T20:42:12.913Z,35.85
2023-03-22T20:46:12.840Z,35.80
2023-03-22T20:50:12.846Z,35.78
2023-03-22T20:54:12.785Z,35.72
2023-03-22T20:58:12.715Z,35.69
2023-03-22T21:02:12.695Z,35.64
2023-03-22T21:06:12.652Z,35.64
2023-03-22T21:10:12.638Z,35.60
2023-03-22T21:14:12.784Z,35.61
2023-03-22T21:18:12.746Z,35.51
2023-03-22T21:22:12.746Z,35.46
2023-03-22T21:26:12.691Z,35.44
2023-03-22T21:30:12.643Z,35.41
2023-03-22T21:34:12.637Z,35.32
2023-03-22T21:38:12.571Z,35.32
2023-03-22T21:42:12.567Z,35.26
2023-03-22T21:46:12.540Z,35.20
2023-03-22T21:50:12.458Z,35.17
2023-03-22T21:54:12.556Z,35.13
2023-03-22T21:58:12.607Z,35.04
2023-03-22T22:02:12.503Z,35.01
2023-03-22T22:06:12.460Z,34.95
2023-03-22T22:10:12.461Z,34.94
2023-03-22T22:14:12.396Z,34.89
2023-03-22T22:18:12.341Z,34.87
2023-03-22T22:22:12.332Z,34.82
2023-03-22T22:26:12.300Z,34.76
2023-03-22T22:30:12.400Z,34.73
2023-03-22T22:34:12.788Z,34.72
2023-03-22T22:38:12.340Z,34.69
2023-03-22T22:42:12.260Z,34.61
2023-03-22T22:46:12.228Z,34.63
2023-03-22T22:50:12.214Z,34.56
2023-03-22T22:54:12.184Z,34.57
2023-03-22T22:58:12.099Z,34.52
2023-03-22T23:02:12.122Z,34.57
2023-03-22T23:06:12.122Z,34.46
2023-03-22T23:10:12.088Z,34.46
2023-03-22T23:14:12.075Z,34.43
2023-03-22T23:18:11.994Z,34.43
2023-03-22T23:22:11.964Z,34.37
2023-03-22T23:26:11.960Z,34.37
2023-03-22T23:30:11.889Z,34.34
2023-03-22T23:34:11.842Z,34.31
2023-03-22T23:38:11.952Z,34.28
2023-03-22T23:42:11.782Z,34.26
2023-03-22T23:46:11.899Z,34.21
2023-03-22T23:50:12.068Z,34.24
2023-03-22T23:54:12.260Z,34.24
2023-03-22T23:58:12.379Z,34.19
